createdAt,value
2022-12-27T00:01:33.867Z,1.90
2022-12-27T00:04:00.907Z,2.00
2022-12-27T00:06:28.791Z,1.43
2022-12-27T00:08:57.240Z,1.53
2022-12-27T00:11:29.790Z,1.67
2022-12-27T00:14:04.645Z,1.93
2022-12-27T00:16:31.728Z,1.93
2022-12-27T00:18:59.029Z,2.10
2022-12-27T00:21:26.347Z,1.70
2022-12-27T00:23:56.627Z,1.57
2022-12-27T00:26:29.049Z,1.93
2022-12-27T00:28:57.513Z,1.73
2022-12-27T00:31:27.000Z,1.80
2022-12-27T00:33:56.374Z,2.40
2022-12-27T00:36:27.301Z,1.97
2022-12-27T00:38:56.835Z,2.10
2022-12-27T00:41:24.347Z,1.90
2022-12-27T00:43:51.158Z,1.80
2022-12-27T00:46:18.298Z,2.13
2022-12-27T00:48:45.879Z,1.50
2022-12-27T00:51:22.300Z,2.13
2022-12-27T00:53:50.481Z,1.43
2022-12-27T00:56:35.161Z,2.10
2022-12-27T00:59:04.618Z,2.23
2022-12-27T01:01:36.007Z,2.00
2022-12-27T01:04:04.272Z,2.43
2022-12-27T01:06:33.901Z,2.97
2022-12-27T01:09:02.690Z,1.67
2022-12-27T01:11:30.974Z,1.90
2022-12-27T01:14:01.078Z,1.77
2022-12-27T01:16:30.571Z,1.90
2022-12-27T01:18:58.721Z,1.90
2022-12-27T01:21:26.147Z,1.60
2022-12-27T01:23:53.047Z,2.10
2022-12-27T01:26:22.872Z,1.93
2022-12-27T01:28:51.909Z,2.17
2022-12-27T01:31:24.582Z,1.53
2022-12-27T01:33:58.894Z,1.83
2022-12-27T01:36:28.031Z,1.67
2022-12-27T01:38:55.483Z,1.60
2022-12-27T01:41:56.441Z,1.50
2022-12-27T01:44:49.068Z,1.80
2022-12-27T01:47:24.236Z,1.60
2022-12-27T01:50:31.854Z,1.70
2022-12-27T01:53:13.333Z,2.03
2022-12-27T01:55:58.914Z,2.43
2022-12-27T01:58:51.674Z,1.77
2022-12-27T02:01:27.989Z,1.80
2022-12-27T02:04:02.275Z,1.80
2022-12-27T02:06:32.254Z,1.67
2022-12-27T02:09:21.467Z,1.60
2022-12-27T02:11:55.321Z,1.93
2022-12-27T02:14:49.555Z,1.93
2022-12-27T02:17:29.179Z,1.90
2022-12-27T02:20:01.707Z,2.07
2022-12-27T02:23:27.688Z,1.60
2022-12-27T02:26:36.741Z,1.60
2022-12-27T02:29:16.620Z,1.53
2022-12-27T02:32:25.793Z,2.03
2022-12-27T02:35:38.988Z,1.93
2022-12-27T02:38:15.113Z,1.67
2022-12-27T02:41:04.682Z,2.00
2022-12-27T02:43:51.765Z,1.73
2022-12-27T02:46:47.925Z,2.10
2022-12-27T02:50:00.014Z,2.13
2022-12-27T02:53:09.811Z,1.83
2022-12-27T02:56:21.178Z,1.73
2022-12-27T02:59:18.749Z,1.53
2022-12-27T03:02:36.131Z,1.97
2022-12-27T03:05:40.128Z,1.73
2022-12-27T03:08:17.779Z,1.53
2022-12-27T03:11:17.796Z,2.00
2022-12-27T03:14:39.607Z,2.20
2022-12-27T03:17:20.193Z,2.00
2022-12-27T03:20:13.522Z,2.27
2022-12-27T03:23:02.372Z,1.90
2022-12-27T03:25:34.686Z,2.07
2022-12-27T03:28:22.762Z,1.90
2022-12-27T03:42:20.544Z,1.70
2022-12-27T03:44:47.697Z,2.13
2022-12-27T03:47:47.263Z,2.13
2022-12-27T03:50:50.864Z,1.80
2022-12-27T03:53:35.551Z,2.13
2022-12-27T03:56:03.628Z,2.23
2022-12-27T03:58:30.430Z,1.63
2022-12-27T04:00:57.281Z,1.97
2022-12-27T04:03:27.745Z,2.20
2022-12-27T04:05:54.584Z,2.07
2022-12-27T04:08:40.066Z,1.50
2022-12-27T04:11:26.272Z,2.13
2022-12-27T04:14:11.850Z,2.00
2022-12-27T04:16:57.340Z,1.77
2022-12-27T04:19:42.765Z,2.03
2022-12-27T04:22:28.164Z,1.93
2022-12-27T04:25:13.546Z,2.07
2022-12-27T04:27:58.864Z,1.87
2022-12-27T04:30:44.063Z,1.90
2022-12-27T04:33:29.185Z,2.10
2022-12-27T04:35:56.813Z,1.93
2022-12-27T04:38:25.865Z,1.73
2022-12-27T04:41:11.546Z,1.60
2022-12-27T04:43:56.844Z,1.57
2022-12-27T04:46:44.640Z,1.87
2022-12-27T04:49:45.319Z,1.57
2022-12-27T04:52:36.778Z,1.93
2022-12-27T04:55:18.171Z,2.40
2022-12-27T04:57:45.411Z,1.77
2022-12-27T05:00:32.092Z,2.27
2022-12-27T05:03:01.891Z,1.80
2022-12-27T05:05:29.168Z,2.03
2022-12-27T05:08:16.852Z,1.80
2022-12-27T05:11:02.370Z,2.20
2022-12-27T05:13:47.930Z,1.97
2022-12-27T05:16:15.570Z,2.23
2022-12-27T05:18:45.210Z,1.50
2022-12-27T05:21:12.596Z,2.07
2022-12-27T05:24:04.944Z,1.50
2022-12-27T05:26:33.461Z,1.90
2022-12-27T05:29:01.627Z,1.70
2022-12-27T05:31:29.828Z,1.80
2022-12-27T05:33:57.574Z,1.63
2022-12-27T05:36:25.683Z,2.23
2022-12-27T05:38:53.104Z,1.53
2022-12-27T05:41:19.888Z,1.83
2022-12-27T05:43:46.844Z,1.60
2022-12-27T05:46:21.315Z,2.03
2022-12-27T05:48:48.191Z,1.67
2022-12-27T05:51:19.526Z,1.80
2022-12-27T05:53:48.807Z,2.13
2022-12-27T05:56:19.652Z,1.80
2022-12-27T05:58:47.178Z,1.90
2022-12-27T06:01:17.726Z,2.10
2022-12-27T06:03:45.604Z,1.97
2022-12-27T06:06:13.593Z,1.87
2022-12-27T06:08:41.121Z,1.77
2022-12-27T06:11:19.479Z,1.83
2022-12-27T06:13:53.138Z,2.00
2022-12-27T06:16:23.340Z,2.03
2022-12-27T06:18:50.593Z,1.83
2022-12-27T06:21:21.291Z,1.50
2022-12-27T06:23:49.281Z,1.97
2022-12-27T06:26:26.752Z,1.73
2022-12-27T06:28:56.440Z,2.00
2022-12-27T06:31:27.463Z,2.50
2022-12-27T06:33:55.178Z,1.90
2022-12-27T06:36:30.129Z,2.33
2022-12-27T06:38:57.566Z,1.60
2022-12-27T06:41:24.453Z,1.93
2022-12-27T06:43:57.179Z,1.73
2022-12-27T06:46:25.049Z,1.70
2022-12-27T06:48:52.545Z,2.57
2022-12-27T06:51:21.448Z,1.90
2022-12-27T06:53:49.230Z,1.97
2022-12-27T06:56:21.845Z,1.90
2022-12-27T06:58:50.512Z,1.97
2022-12-27T07:01:28.116Z,2.00
2022-12-27T07:03:58.324Z,2.27
2022-12-27T07:06:28.207Z,1.80
2022-12-27T07:09:01.212Z,1.70
2022-12-27T07:11:28.714Z,2.13
2022-12-27T07:13:56.193Z,2.00
2022-12-27T07:16:26.628Z,1.70
2022-12-27T07:18:56.102Z,1.63
2022-12-27T07:21:26.044Z,1.70
2022-12-27T07:23:53.086Z,1.70
2022-12-27T07:26:27.799Z,2.50
2022-12-27T07:28:57.622Z,1.90
2022-12-27T07:31:29.619Z,1.83
2022-12-27T07:33:58.696Z,2.20
2022-12-27T07:36:30.262Z,1.50
2022-12-27T07:38:57.741Z,2.00
2022-12-27T07:41:25.047Z,2.33
2022-12-27T07:43:52.126Z,1.90
2022-12-27T07:46:25.741Z,2.07
2022-12-27T07:48:58.160Z,2.20
2022-12-27T07:51:27.083Z,1.83
2022-12-27T07:53:54.806Z,2.10
2022-12-27T07:56:27.720Z,1.90
2022-12-27T07:58:58.187Z,2.23
2022-12-27T08:01:28.704Z,2.13
2022-12-27T08:05:12.972Z,2.47
2022-12-27T08:07:41.336Z,4.50
2022-12-27T08:10:09.800Z,4.00
2022-12-27T08:12:36.579Z,2.87
2022-12-27T08:15:03.464Z,2.43
2022-12-27T08:17:30.550Z,2.67
2022-12-27T08:24:45.729Z,2.87
2022-12-27T08:36:55.671Z,2.33
2022-12-27T08:43:48.000Z,2.63
2022-12-27T08:46:19.425Z,2.23
2022-12-27T08:48:50.414Z,2.60
2022-12-27T08:51:31.312Z,2.37
2022-12-27T08:54:02.475Z,2.30
2022-12-27T08:56:29.675Z,1.83
2022-12-27T08:58:56.389Z,2.33
2022-12-27T09:02:22.904Z,2.33
2022-12-27T09:04:49.943Z,2.23
2022-12-27T09:07:19.002Z,2.20
2022-12-27T09:10:04.693Z,1.90
2022-12-27T09:12:39.726Z,2.27
2022-12-27T09:15:08.000Z,2.57
2022-12-27T09:17:34.820Z,2.07
2022-12-27T09:20:01.620Z,2.30
2022-12-27T09:22:29.136Z,2.30
2022-12-27T09:24:55.872Z,2.07
2022-12-27T09:27:22.851Z,2.20
2022-12-27T09:29:49.577Z,2.50
2022-12-27T09:32:16.492Z,2.33
2022-12-27T09:34:43.254Z,2.27
2022-12-27T09:37:11.623Z,2.57
2022-12-27T09:47:36.475Z,2.10
2022-12-27T09:50:33.499Z,2.23
2022-12-27T09:54:23.991Z,2.37
2022-12-27T09:57:59.739Z,2.77
2022-12-27T10:09:39.343Z,2.30
2022-12-27T10:12:45.697Z,2.40
2022-12-27T10:15:53.808Z,1.93
2022-12-27T10:19:25.909Z,2.10
2022-12-27T10:29:58.817Z,2.10
2022-12-27T10:31:58.074Z,2.07
2022-12-27T10:34:33.003Z,1.67
2022-12-27T10:44:48.905Z,2.00
2022-12-27T10:47:18.175Z,2.00
2022-12-27T10:50:26.273Z,1.70
2022-12-27T10:52:57.508Z,2.23
2022-12-27T10:55:36.325Z,2.13
2022-12-27T10:58:56.622Z,1.80
2022-12-27T11:01:30.614Z,2.10
2022-12-27T11:04:22.922Z,1.97
2022-12-27T11:07:02.108Z,2.00
2022-12-27T11:09:33.181Z,2.00
2022-12-27T11:12:33.006Z,2.17
2022-12-27T11:15:05.601Z,2.27
2022-12-27T11:17:43.749Z,2.53
2022-12-27T11:20:40.577Z,2.20
2022-12-27T11:23:10.102Z,2.03
2022-12-27T11:26:01.365Z,2.30
2022-12-27T11:28:39.610Z,2.33
2022-12-27T11:31:15.146Z,2.00
2022-12-27T11:33:50.287Z,2.10
2022-12-27T11:36:28.606Z,1.80
2022-12-27T11:38:56.524Z,2.37
2022-12-27T11:41:40.209Z,2.20
2022-12-27T11:44:29.657Z,2.00
2022-12-27T11:47:14.642Z,2.03
2022-12-27T11:50:02.754Z,2.00
2022-12-27T11:53:08.937Z,1.90
2022-12-27T11:56:33.013Z,2.30
2022-12-27T11:59:37.639Z,1.90
2022-12-27T12:02:30.648Z,2.10
2022-12-27T12:05:25.225Z,2.43
2022-12-27T12:08:45.232Z,1.93
2022-12-27T12:11:30.996Z,2.10
2022-12-27T12:14:31.577Z,2.27
2022-12-27T12:17:21.239Z,2.17
2022-12-27T12:20:32.965Z,2.43
2022-12-27T12:23:17.832Z,2.20
2022-12-27T12:26:22.460Z,1.87
2022-12-27T12:29:23.796Z,2.00
2022-12-27T12:32:31.851Z,2.27
2022-12-27T12:35:26.163Z,2.03
2022-12-27T12:38:04.068Z,1.80
2022-12-27T12:40:54.532Z,2.20
2022-12-27T12:43:50.976Z,1.87
2022-12-27T12:46:29.981Z,2.10
2022-12-27T12:49:40.072Z,1.90
2022-12-27T12:52:30.735Z,2.20
2022-12-27T12:55:49.580Z,1.83
2022-12-27T12:59:02.853Z,1.90
2022-12-27T13:02:05.930Z,1.77
2022-12-27T13:05:18.061Z,2.17
2022-12-27T13:08:02.511Z,1.93
2022-12-27T13:11:04.594Z,1.63
2022-12-27T13:13:55.702Z,1.90
2022-12-27T13:16:58.866Z,1.93
2022-12-27T13:19:55.322Z,1.73
2022-12-27T13:22:53.025Z,1.43
2022-12-27T13:25:50.113Z,1.50
2022-12-27T13:28:33.501Z,1.47
2022-12-27T13:31:07.511Z,2.07
2022-12-27T13:34:13.655Z,1.50
2022-12-27T13:37:06.210Z,1.80
2022-12-27T13:39:53.946Z,2.37
2022-12-27T13:43:06.830Z,1.20
2022-12-27T13:45:59.446Z,1.20
2022-12-27T13:48:45.216Z,1.63
2022-12-27T13:51:46.843Z,1.70
2022-12-27T13:55:11.481Z,1.70
2022-12-27T13:58:11.067Z,1.27
2022-12-27T14:01:10.845Z,1.93
2022-12-27T14:03:40.604Z,1.40
2022-12-27T14:06:49.409Z,1.50
2022-12-27T14:09:53.621Z,1.33
2022-12-27T14:12:59.908Z,1.60
2022-12-27T14:16:12.543Z,1.67
2022-12-27T14:19:16.441Z,1.20
2022-12-27T14:22:30.835Z,1.70
2022-12-27T14:25:24.925Z,1.50
2022-12-27T14:29:02.199Z,1.60
2022-12-27T14:32:02.577Z,1.87
2022-12-27T14:34:54.562Z,1.23
2022-12-27T14:37:51.872Z,1.60
2022-12-27T14:41:18.703Z,1.83
2022-12-27T14:44:13.011Z,2.00
2022-12-27T14:47:04.455Z,1.93
2022-12-27T14:49:59.012Z,1.83
2022-12-27T14:53:04.820Z,1.77
2022-12-27T14:56:03.422Z,1.77
2022-12-27T14:59:08.677Z,1.97
2022-12-27T15:02:16.647Z,2.00
2022-12-27T15:05:29.060Z,1.60
2022-12-27T15:08:35.649Z,1.93
2022-12-27T15:11:45.245Z,1.87
2022-12-27T15:14:48.498Z,1.80
2022-12-27T15:18:01.365Z,1.70
2022-12-27T15:21:20.259Z,2.00
2022-12-27T15:24:04.501Z,2.30
2022-12-27T15:26:54.679Z,1.70
2022-12-27T15:29:42.757Z,2.00
2022-12-27T15:32:23.528Z,1.60
2022-12-27T15:35:36.756Z,1.43
2022-12-27T15:38:16.210Z,1.60
2022-12-27T15:41:11.202Z,2.30
2022-12-27T15:44:07.466Z,1.80
2022-12-27T15:47:01.693Z,2.03
2022-12-27T15:50:12.609Z,2.00
2022-12-27T15:52:58.853Z,2.17
2022-12-27T15:55:40.810Z,2.13
2022-12-27T15:58:26.338Z,1.97
2022-12-27T16:01:23.952Z,2.20
2022-12-27T16:03:54.037Z,1.90
2022-12-27T16:06:36.107Z,2.13
2022-12-27T16:09:23.929Z,2.10
2022-12-27T16:12:30.985Z,1.97
2022-12-27T16:15:47.703Z,1.90
2022-12-27T16:18:20.068Z,1.90
2022-12-27T16:20:58.492Z,1.50
2022-12-27T16:23:30.712Z,2.20
2022-12-27T16:26:25.965Z,3.33
2022-12-27T16:29:15.747Z,2.20
2022-12-27T16:31:49.594Z,1.90
2022-12-27T16:34:28.890Z,2.00
2022-12-27T16:37:02.671Z,1.73
2022-12-27T16:40:22.184Z,2.27
2022-12-27T16:42:57.559Z,2.37
2022-12-27T16:45:39.434Z,1.63
2022-12-27T16:48:24.936Z,2.10
2022-12-27T16:51:17.148Z,2.10
2022-12-27T16:54:25.190Z,2.03
2022-12-27T16:57:21.205Z,2.03
2022-12-27T17:00:13.508Z,1.97
2022-12-27T17:02:44.878Z,2.10
2022-12-27T17:05:14.915Z,1.90
2022-12-27T17:08:08.249Z,2.73
2022-12-27T17:10:44.443Z,2.37
2022-12-27T17:13:42.484Z,1.97
2022-12-27T17:16:20.294Z,1.90
2022-12-27T17:18:58.946Z,1.80
2022-12-27T17:21:36.658Z,2.03
2022-12-27T17:24:09.652Z,2.13
2022-12-27T17:27:11.892Z,1.97
2022-12-27T17:30:06.557Z,1.97
2022-12-27T17:33:09.997Z,1.73
2022-12-27T17:35:57.910Z,2.27
2022-12-27T17:39:22.247Z,1.53
2022-12-27T17:42:51.698Z,1.83
2022-12-27T17:45:50.176Z,2.30
2022-12-27T17:48:32.370Z,2.13
2022-12-27T17:51:11.467Z,2.20
2022-12-27T17:54:09.009Z,2.20
2022-12-27T17:57:17.861Z,2.23
2022-12-27T17:59:51.075Z,2.67
2022-12-27T18:02:28.129Z,2.63
2022-12-27T18:04:57.325Z,2.60
2022-12-27T18:07:30.726Z,2.40
2022-12-27T18:10:26.359Z,2.93
2022-12-27T18:12:57.668Z,2.67
2022-12-27T18:15:34.816Z,2.60
2022-12-27T18:18:06.879Z,2.43
2022-12-27T18:20:39.128Z,2.47
2022-12-27T18:23:06.075Z,1.93
2022-12-27T18:25:37.498Z,2.63
2022-12-27T18:28:15.130Z,2.80
2022-12-27T18:30:53.286Z,2.27
2022-12-27T18:33:31.906Z,2.30
2022-12-27T18:36:04.269Z,2.63
2022-12-27T18:38:39.909Z,2.30
2022-12-27T18:41:12.813Z,3.07
2022-12-27T18:43:46.162Z,2.20
2022-12-27T18:46:20.904Z,2.77
2022-12-27T18:48:48.918Z,2.30
2022-12-27T18:51:15.722Z,2.17
2022-12-27T18:53:43.855Z,2.37
2022-12-27T18:56:19.034Z,2.23
2022-12-27T18:59:21.380Z,7.90
2022-12-27T19:01:49.302Z,13.93
2022-12-27T19:04:18.766Z,8.53
2022-12-27T19:07:05.935Z,7.40
2022-12-27T19:09:59.662Z,4.93
2022-12-27T19:12:34.892Z,4.60
2022-12-27T19:15:03.648Z,5.13
2022-12-27T19:17:32.238Z,4.70
2022-12-27T19:20:04.157Z,6.10
2022-12-27T19:22:53.190Z,5.17
2022-12-27T19:25:23.949Z,8.07
2022-12-27T19:28:16.809Z,9.10
2022-12-27T19:30:51.251Z,7.80
2022-12-27T19:33:30.160Z,5.73
2022-12-27T19:35:57.446Z,5.27
2022-12-27T19:38:29.494Z,8.37
2022-12-27T19:41:03.692Z,4.90
2022-12-27T19:43:41.725Z,6.40
2022-12-27T19:46:12.393Z,4.43
2022-12-27T19:48:40.344Z,3.33
2022-12-27T19:51:12.661Z,3.47
2022-12-27T19:53:42.498Z,3.20
2022-12-27T19:56:11.388Z,2.63
2022-12-27T19:58:38.959Z,2.30
2022-12-27T20:01:05.768Z,3.30
2022-12-27T20:03:32.580Z,12.10
2022-12-27T20:06:12.779Z,7.33
2022-12-27T20:08:49.224Z,2.80
2022-12-27T20:11:20.521Z,5.63
2022-12-27T20:13:48.050Z,4.77
2022-12-27T20:16:18.294Z,4.27
2022-12-27T20:18:46.217Z,2.87
2022-12-27T20:21:18.684Z,3.60
2022-12-27T20:23:46.720Z,4.10
2022-12-27T20:26:18.182Z,5.80
2022-12-27T20:28:44.986Z,3.43
2022-12-27T20:31:16.363Z,1.97
2022-12-27T20:33:43.563Z,3.00
2022-12-27T20:36:12.421Z,3.30
2022-12-27T20:38:40.105Z,2.60
2022-12-27T20:41:13.216Z,3.90
2022-12-27T20:43:40.390Z,2.97
2022-12-27T20:46:18.261Z,1.80
2022-12-27T20:48:46.862Z,2.53
2022-12-27T20:51:27.335Z,2.53
2022-12-27T20:54:00.524Z,2.10
2022-12-27T20:56:27.979Z,2.50
2022-12-27T20:58:54.744Z,1.90
2022-12-27T21:01:25.264Z,1.90
2022-12-27T21:03:53.300Z,1.67
2022-12-27T21:06:24.823Z,2.00
2022-12-27T21:08:56.759Z,1.90
2022-12-27T21:11:30.239Z,2.10
2022-12-27T21:13:57.379Z,1.70
2022-12-27T21:16:28.435Z,2.03
2022-12-27T21:18:56.784Z,1.90
2022-12-27T21:21:28.270Z,2.17
2022-12-27T21:23:57.883Z,1.80
2022-12-27T21:26:29.467Z,1.37
2022-12-27T21:28:57.902Z,1.63
2022-12-27T21:31:25.177Z,1.73
2022-12-27T21:33:52.319Z,1.50
2022-12-27T21:36:26.240Z,1.40
2022-12-27T21:38:54.829Z,1.53
2022-12-27T21:41:34.911Z,1.40
2022-12-27T21:44:02.532Z,1.53
2022-12-27T21:46:34.517Z,1.70
2022-12-27T21:49:10.821Z,2.30
2022-12-27T21:51:38.911Z,2.10
2022-12-27T21:54:06.708Z,1.67
2022-12-27T21:56:34.046Z,1.40
2022-12-27T21:59:02.941Z,1.60
2022-12-27T22:01:49.995Z,1.70
2022-12-27T22:04:18.384Z,1.40
2022-12-27T22:06:47.447Z,1.40
2022-12-27T22:09:15.877Z,1.50
2022-12-27T22:11:43.075Z,1.30
2022-12-27T22:14:09.995Z,1.73
2022-12-27T22:16:39.584Z,1.47
2022-12-27T22:19:09.706Z,1.33
2022-12-27T22:21:38.489Z,1.27
2022-12-27T22:24:06.258Z,1.50
2022-12-27T22:26:37.833Z,1.57
2022-12-27T22:29:06.467Z,1.10
2022-12-27T22:31:36.676Z,1.40
2022-12-27T22:34:05.922Z,1.50
2022-12-27T22:36:33.523Z,1.40
2022-12-27T22:39:01.493Z,1.10
2022-12-27T22:41:35.187Z,1.20
2022-12-27T22:44:08.498Z,1.43
2022-12-27T22:47:24.603Z,1.37
2022-12-27T22:49:22.685Z,1.03
2022-12-27T22:51:49.639Z,1.50
2022-12-27T22:54:16.616Z,1.20
2022-12-27T22:56:43.991Z,1.10
2022-12-27T22:59:16.572Z,1.10
2022-12-27T23:01:45.911Z,1.50
2022-12-27T23:04:14.580Z,1.70
2022-12-27T23:06:42.458Z,1.43
2022-12-27T23:09:10.040Z,1.30
2022-12-27T23:11:40.835Z,1.23
2022-12-27T23:14:14.430Z,1.30
2022-12-27T23:16:48.114Z,1.00
2022-12-27T23:19:18.928Z,1.33
2022-12-27T23:21:46.931Z,1.30
2022-12-27T23:24:14.496Z,1.40
2022-12-27T23:26:42.373Z,1.30
2022-12-27T23:29:13.112Z,1.50
2022-12-27T23:31:54.881Z,1.40
2022-12-27T23:34:28.112Z,1.03
2022-12-27T23:36:55.883Z,1.20
2022-12-27T23:39:22.645Z,1.43
2022-12-27T23:41:49.525Z,1.47
2022-12-27T23:44:21.228Z,1.30
2022-12-27T23:47:00.624Z,1.43
2022-12-27T23:49:27.515Z,1.40
2022-12-27T23:51:54.294Z,1.90
2022-12-27T23:54:21.162Z,1.00
2022-12-27T23:56:47.917Z,1.40
2022-12-27T23:59:16.876Z,1.20
